createdAt,value
2023-03-12T00:03:21.349Z,0.57
2023-03-12T00:08:26.066Z,0.49
2023-03-12T00:13:34.633Z,0.39
2023-03-12T00:18:38.083Z,0.26
2023-03-12T00:23:41.196Z,0.11
2023-03-12T00:28:43.562Z,-0.06
2023-03-12T00:33:46.937Z,-0.18
2023-03-12T00:38:49.347Z,-0.31
2023-03-12T00:44:11.351Z,-0.43
2023-03-12T00:49:16.731Z,-0.52
2023-03-12T00:54:39.185Z,-0.62
2023-03-12T00:59:42.964Z,-0.68
2023-03-12T01:04:45.532Z,-0.80
2023-03-12T01:09:50.787Z,-0.90
2023-03-12T01:14:54.160Z,-0.98
2023-03-12T01:19:56.486Z,-1.07
2023-03-12T01:24:59.020Z,-1.16
2023-03-12T01:30:03.068Z,-1.26
2023-03-12T01:35:06.319Z,-1.34
2023-03-12T01:40:14.199Z,-1.37
2023-03-12T01:46:11.128Z,-1.40
2023-03-12T01:51:16.041Z,-1.42
2023-03-12T01:56:20.837Z,-1.39
2023-03-12T02:01:25.492Z,-1.39
2023-03-12T02:06:37.720Z,-1.41
2023-03-12T02:11:40.971Z,-1.39
2023-03-12T02:16:44.620Z,-1.39
2023-03-12T02:21:47.053Z,-1.46
2023-03-12T02:26:49.951Z,-1.45
2023-03-12T02:31:56.675Z,-1.50
2023-03-12T02:37:00.158Z,-1.53
2023-03-12T02:42:03.063Z,-1.52
2023-03-12T02:47:06.037Z,-1.53
2023-03-12T02:52:08.409Z,-1.54
2023-03-12T02:57:10.386Z,-1.55
2023-03-12T03:02:13.084Z,-1.60
2023-03-12T03:07:17.406Z,-1.66
2023-03-12T03:12:20.167Z,-1.67
2023-03-12T03:17:24.584Z,-1.67
2023-03-12T03:22:26.924Z,-1.74
2023-03-12T03:27:29.963Z,-1.79
2023-03-12T03:32:32.212Z,-1.83
2023-03-12T03:37:34.881Z,-1.82
2023-03-12T03:42:37.452Z,-1.86
2023-03-12T03:47:39.474Z,-1.87
2023-03-12T03:52:42.158Z,-1.88
2023-03-12T03:57:44.773Z,-1.88
2023-03-12T04:02:47.790Z,-1.84
2023-03-12T04:07:53.247Z,-1.83
2023-03-12T04:12:57.001Z,-1.87
2023-03-12T04:17:59.135Z,-1.84
2023-03-12T04:23:01.851Z,-1.82
2023-03-12T04:28:04.811Z,-1.83
2023-03-12T04:33:07.562Z,-1.87
2023-03-12T04:38:10.752Z,-1.83
2023-03-12T04:43:13.827Z,-1.84
2023-03-12T04:48:15.987Z,-1.84
2023-03-12T04:53:20.602Z,-1.84
2023-03-12T04:58:24.158Z,-1.85
2023-03-12T05:03:26.617Z,-1.91
2023-03-12T05:08:29.725Z,-1.94
2023-03-12T05:13:32.015Z,-1.92
2023-03-12T05:18:34.742Z,-1.88
2023-03-12T05:23:39.673Z,-1.80
2023-03-12T05:28:42.801Z,-1.66
2023-03-12T05:33:46.675Z,-1.59
2023-03-12T05:38:49.121Z,-1.51
2023-03-12T05:43:56.780Z,-1.38
2023-03-12T05:48:59.217Z,-1.27
2023-03-12T05:54:02.259Z,-1.20
2023-03-12T05:59:05.002Z,-1.11
2023-03-12T06:04:08.430Z,-1.04
2023-03-12T06:09:10.430Z,-0.98
2023-03-12T06:14:13.286Z,-0.88
2023-03-12T06:19:15.702Z,-0.76
2023-03-12T06:24:20.172Z,-0.73
2023-03-12T06:29:32.352Z,-0.58
2023-03-12T06:34:35.558Z,-0.37
2023-03-12T06:39:38.730Z,-0.14
2023-03-12T06:44:40.639Z,0.03
2023-03-12T06:49:43.144Z,0.19
2023-03-12T06:54:46.043Z,0.38
2023-03-12T06:59:50.567Z,0.51
2023-03-12T07:04:52.740Z,0.48
2023-03-12T07:09:55.164Z,0.44
2023-03-12T07:14:57.496Z,0.50
2023-03-12T07:20:00.260Z,0.59
2023-03-12T07:25:02.230Z,0.77
2023-03-12T07:30:05.809Z,0.93
2023-03-12T07:35:08.733Z,1.10
2023-03-12T07:40:20.325Z,1.29
2023-03-12T07:45:26.038Z,1.46
2023-03-12T07:50:30.822Z,1.70
2023-03-12T07:55:35.158Z,1.87
2023-03-12T08:00:37.658Z,1.97
2023-03-12T08:05:55.452Z,2.14
2023-03-12T08:11:04.605Z,2.32
2023-03-12T08:16:09.615Z,2.54
2023-03-12T08:21:16.488Z,2.72
2023-03-12T08:26:19.462Z,2.92
2023-03-12T08:31:25.150Z,3.09
2023-03-12T08:36:27.394Z,3.27
2023-03-12T08:41:30.279Z,3.56
2023-03-12T08:46:33.239Z,3.82
2023-03-12T08:51:35.827Z,4.02
2023-03-12T08:56:42.020Z,4.11
2023-03-12T09:01:44.114Z,4.24
2023-03-12T09:06:47.432Z,4.37
2023-03-12T09:11:52.116Z,4.56
2023-03-12T09:17:00.678Z,4.71
2023-03-12T09:22:03.498Z,4.83
2023-03-12T09:27:09.292Z,4.95
2023-03-12T09:32:15.348Z,5.04
2023-03-12T09:37:23.605Z,5.15
2023-03-12T09:42:49.556Z,5.20
2023-03-12T09:48:04.310Z,5.29
2023-03-12T09:53:33.610Z,5.65
2023-03-12T09:58:39.604Z,6.09
2023-03-12T10:04:05.700Z,6.38
2023-03-12T10:09:45.877Z,6.49
2023-03-12T10:15:02.513Z,6.41
2023-03-12T10:21:11.258Z,6.16
2023-03-12T10:27:14.722Z,6.17
2023-03-12T10:32:33.444Z,6.19
2023-03-12T10:37:50.286Z,6.22
2023-03-12T10:42:56.602Z,6.46
2023-03-12T10:48:10.548Z,6.73
2023-03-12T10:53:35.854Z,6.90
2023-03-12T10:58:45.046Z,7.07
2023-03-12T11:03:47.285Z,7.24
2023-03-12T11:09:26.029Z,7.18
2023-03-12T11:14:33.646Z,7.11
2023-03-12T11:19:40.602Z,7.31
2023-03-12T11:25:00.971Z,7.44
2023-03-12T11:30:11.175Z,7.56
2023-03-12T11:35:17.418Z,7.74
2023-03-12T11:40:52.457Z,7.70
2023-03-12T11:46:32.941Z,7.82
2023-03-12T11:52:09.385Z,7.93
2023-03-12T11:57:39.747Z,8.01
2023-03-12T12:03:24.296Z,8.02
2023-03-12T12:08:46.957Z,8.11
2023-03-12T12:14:27.462Z,8.14
2023-03-12T12:20:07.752Z,8.11
2023-03-12T12:25:23.936Z,8.19
2023-03-12T12:31:09.193Z,8.32
2023-03-12T12:36:14.501Z,8.27
2023-03-12T12:41:31.513Z,8.23
2023-03-12T12:46:45.253Z,8.07
2023-03-12T12:51:54.625Z,8.01
2023-03-12T12:57:21.508Z,7.96
2023-03-12T13:02:31.749Z,7.95
2023-03-12T13:07:44.723Z,8.04
2023-03-12T13:12:58.836Z,8.06
2023-03-12T13:18:07.971Z,8.10
2023-03-12T13:23:31.163Z,8.40
2023-03-12T13:29:11.197Z,8.62
2023-03-12T13:34:48.416Z,8.70
2023-03-12T13:40:01.864Z,8.71
2023-03-12T13:46:10.720Z,8.95
2023-03-12T13:51:28.604Z,9.03
2023-03-12T13:56:34.590Z,9.10
2023-03-12T14:01:49.954Z,8.97
2023-03-12T14:07:15.689Z,9.11
2023-03-12T14:12:38.716Z,8.92
2023-03-12T14:17:45.507Z,8.71
2023-03-12T14:23:17.691Z,8.55
2023-03-12T14:28:23.946Z,8.15
2023-03-12T14:33:34.101Z,8.05
2023-03-12T14:38:49.211Z,8.20
2023-03-12T14:43:55.031Z,8.17
2023-03-12T14:48:57.884Z,8.02
2023-03-12T14:54:03.404Z,7.94
2023-03-12T14:59:36.928Z,7.94
2023-03-12T15:04:46.971Z,7.77
2023-03-12T15:10:05.153Z,7.64
2023-03-12T15:15:11.293Z,7.44
2023-03-12T15:20:16.446Z,7.19
2023-03-12T15:25:28.771Z,6.92
2023-03-12T15:30:45.759Z,6.65
2023-03-12T15:36:43.552Z,6.42
2023-03-12T15:41:52.068Z,6.18
2023-03-12T15:47:06.234Z,6.03
2023-03-12T15:52:41.360Z,5.98
2023-03-12T15:57:49.067Z,5.90
2023-03-12T16:03:00.756Z,5.79
2023-03-12T16:08:36.030Z,5.70
2023-03-12T16:13:39.151Z,5.60
2023-03-12T16:18:47.405Z,5.71
2023-03-12T16:23:52.862Z,5.78
2023-03-12T16:28:55.448Z,5.80
2023-03-12T16:34:01.016Z,5.74
2023-03-12T16:39:12.596Z,5.52
2023-03-12T16:44:22.269Z,5.47
2023-03-12T16:49:28.040Z,5.50
2023-03-12T16:54:30.868Z,5.50
2023-03-12T16:59:38.086Z,5.53
2023-03-12T17:04:40.248Z,5.50
2023-03-12T17:09:42.222Z,5.47
2023-03-12T17:14:48.770Z,5.43
2023-03-12T17:19:53.822Z,5.36
2023-03-12T17:24:55.784Z,5.09
2023-03-12T17:29:57.772Z,5.06
2023-03-12T17:35:03.296Z,5.13
2023-03-12T17:40:11.154Z,5.17
2023-03-12T17:45:23.596Z,5.17
2023-03-12T17:50:26.172Z,5.26
2023-03-12T17:55:40.620Z,5.25
2023-03-12T18:00:45.871Z,5.16
2023-03-12T18:05:51.385Z,5.09
2023-03-12T18:10:56.447Z,5.05
2023-03-12T18:16:01.626Z,5.07
2023-03-12T18:21:03.904Z,5.04
2023-03-12T18:26:06.654Z,5.04
2023-03-12T18:31:09.558Z,4.98
2023-03-12T18:36:14.354Z,4.95
2023-03-12T18:41:16.910Z,5.00
2023-03-12T18:46:19.541Z,5.06
2023-03-12T18:51:22.100Z,5.03
2023-03-12T18:56:25.774Z,5.00
2023-03-12T19:01:30.974Z,5.01
2023-03-12T19:06:48.101Z,4.91
2023-03-12T19:11:55.523Z,4.86
2023-03-12T19:16:57.603Z,4.82
2023-03-12T19:22:02.551Z,4.78
2023-03-12T19:27:08.555Z,4.82
2023-03-12T19:32:10.794Z,4.86
2023-03-12T19:37:12.741Z,4.86
2023-03-12T19:42:20.278Z,4.85
2023-03-12T19:47:22.551Z,4.84
2023-03-12T19:52:25.365Z,4.87
2023-03-12T19:57:27.995Z,4.90
2023-03-12T20:02:30.750Z,4.75
2023-03-12T20:07:33.556Z,4.43
2023-03-12T20:12:37.368Z,4.23
2023-03-12T20:17:39.831Z,4.10
2023-03-12T20:22:42.044Z,4.02
2023-03-12T20:27:47.572Z,3.96
2023-03-12T20:32:49.736Z,3.93
2023-03-12T20:37:52.134Z,3.99
2023-03-12T20:42:54.621Z,4.30
2023-03-12T20:47:59.372Z,4.38
2023-03-12T20:53:01.783Z,4.29
2023-03-12T20:58:04.532Z,4.15
2023-03-12T21:03:07.090Z,4.09
2023-03-12T21:08:10.152Z,4.04
2023-03-12T21:13:12.640Z,4.13
2023-03-12T21:18:14.706Z,4.29
2023-03-12T21:23:17.308Z,4.19
2023-03-12T21:28:20.183Z,4.18
2023-03-12T21:33:22.383Z,4.19
2023-03-12T21:38:25.590Z,4.22
2023-03-12T21:43:29.289Z,4.28
2023-03-12T21:48:32.276Z,4.35
2023-03-12T21:53:35.415Z,4.45
2023-03-12T21:58:37.749Z,4.53
2023-03-12T22:03:41.970Z,4.62
2023-03-12T22:08:47.115Z,4.71
2023-03-12T22:13:53.452Z,4.73
2023-03-12T22:18:57.058Z,4.72
2023-03-12T22:24:02.523Z,4.72
2023-03-12T22:29:06.784Z,4.73
2023-03-12T22:34:09.617Z,4.86
2023-03-12T22:39:12.332Z,4.96
2023-03-12T22:44:15.163Z,4.87
2023-03-12T22:49:32.607Z,4.82
2023-03-12T22:54:37.112Z,4.85
2023-03-12T22:59:42.233Z,5.10
2023-03-12T23:04:44.700Z,5.36
2023-03-12T23:09:47.684Z,5.51
2023-03-12T23:14:50.217Z,5.59
2023-03-12T23:19:52.763Z,5.65
2023-03-12T23:25:05.300Z,5.70
2023-03-12T23:30:10.015Z,5.72
2023-03-12T23:35:12.879Z,5.73
2023-03-12T23:40:19.424Z,5.78
2023-03-12T23:45:22.818Z,5.79
2023-03-12T23:50:25.539Z,5.81
2023-03-12T23:55:28.427Z,5.85
